Time;durP1;ratioP1;P1;durP2;ratioP2;P2;SDS_P1;SDS_P2;PMS_P1;PMS_P2;Temp;Humidity;BMP_temperature;BMP_pressure;BME280_temperature;BME280_humidity;BME280_pressure;Samples;Min_cycle;Max_cycle;Signal;HPM_P1;HPM_P2
2022/06/07 00:01:09;282526.00;0.94;487.88;79893.00;0.27;138.85;;;;;22.00;1.00;;;;;;2284599;60;1657;-85
2022/06/07 00:03:38;226789.00;0.76;392.02;0.00;0.00;0.62;;;;;22.10;1.00;;;;;;2284692;60;1521;-85
2022/06/07 00:06:06;232731.00;0.78;402.25;0.00;0.00;0.62;;;;;22.20;1.00;;;;;;2284310;60;1351;-85
2022/06/07 00:08:34;232423.00;0.77;401.72;51494.00;0.17;89.77;;;;;22.20;1.00;;;;;;2284526;60;1049;-85
2022/06/07 00:11:03;183741.00;0.61;317.93;30840.00;0.10;54.04;;;;;22.40;1.00;;;;;;2284507;60;998;-85
2022/06/07 00:13:30;413434.00;1.38;712.90;75685.00;0.25;131.58;;;;;22.40;1.00;;;;;;2284342;60;1148;-85
2022/06/07 00:15:57;188572.00;0.63;326.25;0.00;0.00;0.62;;;;;22.10;1.00;;;;;;2284604;60;2025;-86
2022/06/07 00:18:25;206761.00;0.69;357.56;0.00;0.00;0.62;;;;;22.00;1.00;;;;;;2284527;61;1168;-85
2022/06/07 00:20:52;121156.00;0.40;210.08;0.00;0.00;0.62;;;;;22.20;1.00;;;;;;2284308;60;1368;-84
2022/06/07 00:23:20;31450.00;0.10;55.09;0.00;0.00;0.62;;;;;22.30;1.00;;;;;;2284111;61;1074;-85
2022/06/07 00:25:50;257826.00;0.86;445.41;100555.00;0.34;174.53;;;;;22.20;1.00;;;;;;2284269;60;1362;-86
2022/06/07 00:28:20;97245.00;0.32;168.82;0.00;0.00;0.62;;;;;22.30;1.00;;;;;;2284323;60;1165;-84
2022/06/07 00:30:47;376797.00;1.26;649.92;120798.00;0.40;209.46;;;;;22.40;1.00;;;;;;2284815;60;1047;-85
2022/06/07 00:33:15;234879.00;0.78;405.94;0.00;0.00;0.62;;;;;22.00;1.00;;;;;;2284349;60;977;-86
2022/06/07 00:35:42;62855.00;0.21;109.41;0.00;0.00;0.62;;;;;21.60;1.00;;;;;;2284170;60;2014;-85
2022/06/07 00:38:10;0.00;0.00;0.62;0.00;0.00;0.62;;;;;21.40;1.00;;;;;;2284293;61;1145;-85
2022/06/07 00:40:37;36111.00;0.12;63.16;0.00;0.00;0.62;;;;;21.40;1.00;;;;;;2284524;61;1120;-85
2022/06/07 00:43:04;31020.00;0.10;54.35;0.00;0.00;0.62;;;;;21.40;1.00;;;;;;2284426;60;1052;-84
2022/06/07 00:45:36;109698.00;0.37;190.31;37088.00;0.12;64.85;;;;;21.40;1.00;;;;;;2284585;60;1534;-86
2022/06/07 00:48:04;88005.00;0.29;152.86;0.00;0.00;0.62;;;;;21.10;1.00;;;;;;2284696;60;1276;-87
2022/06/07 00:50:40;107019.00;0.36;185.69;0.00;0.00;0.62;;;;;21.00;1.00;;;;;;2284628;60;1297;-86
2022/06/07 00:53:21;86559.00;0.29;150.37;0.00;0.00;0.62;;;;;20.70;1.00;;;;;;2284429;60;1142;-84
2022/06/07 00:55:48;0.00;0.00;0.62;0.00;0.00;0.62;;;;;20.40;1.00;;;;;;2284304;60;1913;-84
2022/06/07 00:58:15;42742.00;0.14;74.63;0.00;0.00;0.62;;;;;20.40;1.00;;;;;;2284507;60;1018;-85
2022/06/07 01:00:44;33784.00;0.11;59.13;0.00;0.00;0.62;;;;;20.10;1.00;;;;;;2284450;60;1317;-85
2022/06/07 01:03:12;0.00;0.00;0.62;0.00;0.00;0.62;;;;;20.00;1.00;;;;;;2284453;61;1179;-84
2022/06/07 01:05:39;0.00;0.00;0.62;0.00;0.00;0.62;;;;;19.80;1.00;;;;;;2284333;60;1272;-85
2022/06/07 01:10:53;13243.00;0.04;23.57;0.00;0.00;0.62;;;;;20.10;1.00;;;;;;2284076;61;803;-85
2022/06/07 01:13:25;36050.00;0.12;63.05;0.00;0.00;0.62;;;;;20.30;1.00;;;;;;2284287;60;1060;-85
2022/06/07 01:15:58;100153.00;0.33;173.84;0.00;0.00;0.62;;;;;20.40;1.00;;;;;;2284097;60;1998;-85
2022/06/07 01:18:25;119737.00;0.40;207.63;22663.00;0.08;39.88;;;;;20.30;1.00;;;;;;2284204;61;1150;-85
2022/06/07 01:21:14;2357.00;0.01;4.71;0.00;0.00;0.62;;;;;20.10;1.00;;;;;;2284303;61;1158;-85
2022/06/07 01:23:42;0.00;0.00;0.62;0.00;0.00;0.62;;;;;20.20;1.00;;;;;;2283845;60;1044;-85
2022/06/07 01:26:09;0.00;0.00;0.62;0.00;0.00;0.62;;;;;20.30;1.00;;;;;;2284065;61;1363;-86
2022/06/07 01:28:36;126880.00;0.42;219.95;0.00;0.00;0.62;;;;;20.30;1.00;;;;;;2284068;60;1084;-87
2022/06/07 01:31:04;55749.00;0.19;97.13;0.00;0.00;0.62;;;;;20.50;1.00;;;;;;2284032;61;1072;-86
2022/06/07 01:33:31;83123.00;0.28;144.43;0.00;0.00;0.62;;;;;20.70;1.00;;;;;;2283911;61;1166;-86
2022/06/07 01:36:02;0.00;0.00;0.62;0.00;0.00;0.62;;;;;20.50;1.00;;;;;;2283956;61;2025;-86
2022/06/07 01:38:32;0.00;0.00;0.62;0.00;0.00;0.62;;;;;20.50;1.00;;;;;;2284192;60;925;-86
2022/06/07 01:43:44;0.00;0.00;0.62;0.00;0.00;0.62;;;;;20.60;1.00;;;;;;2283781;60;639;-86
2022/06/07 01:46:11;16660.00;0.06;29.49;0.00;0.00;0.62;;;;;20.60;1.00;;;;;;2283751;61;1691;-87
2022/06/07 01:48:39;0.00;0.00;0.62;0.00;0.00;0.62;;;;;20.80;1.00;;;;;;2283799;61;1080;-85
2022/06/07 01:51:09;0.00;0.00;0.62;0.00;0.00;0.62;;;;;20.90;1.00;;;;;;2284300;61;1126;-86
2022/06/07 01:53:39;0.00;0.00;0.62;0.00;0.00;0.62;;;;;21.00;1.00;;;;;;2284964;61;1073;-86
2022/06/07 01:56:10;29591.00;0.10;51.88;0.00;0.00;0.62;;;;;21.00;1.00;;;;;;2284805;60;2001;-85
2022/06/07 01:58:39;0.00;0.00;0.62;0.00;0.00;0.62;;;;;21.00;1.00;;;;;;2284897;61;1074;-85
2022/06/07 02:01:06;0.00;0.00;0.62;0.00;0.00;0.62;;;;;21.10;1.00;;;;;;2285147;60;1124;-87
2022/06/07 02:03:34;102983.00;0.34;178.72;0.00;0.00;0.62;;;;;21.00;1.00;;;;;;2285087;60;963;-86
2022/06/07 02:06:05;413126.00;1.38;712.37;58351.00;0.19;101.63;;;;;21.00;1.00;;;;;;2285057;60;1465;-85
2022/06/07 02:08:36;0.00;0.00;0.62;0.00;0.00;0.62;;;;;21.10;1.00;;;;;;2284902;60;1008;-85
2022/06/07 02:11:08;0.00;0.00;0.62;0.00;0.00;0.62;;;;;21.00;1.00;;;;;;2284989;60;1085;-86
2022/06/07 02:13:36;0.00;0.00;0.62;0.00;0.00;0.62;;;;;21.10;1.00;;;;;;2284851;61;1069;-86
2022/06/07 02:16:04;23106.00;0.08;40.65;0.00;0.00;0.62;;;;;21.30;1.00;;;;;;2284769;60;1918;-86
2022/06/07 02:18:31;0.00;0.00;0.62;0.00;0.00;0.62;;;;;21.00;1.00;;;;;;2284632;61;1064;-87
2022/06/07 02:21:00;23474.00;0.08;41.29;0.00;0.00;0.62;;;;;21.20;1.00;;;;;;2284814;60;1295;-86
2022/06/07 02:23:27;0.00;0.00;0.62;0.00;0.00;0.62;;;;;21.20;1.00;;;;;;2284525;60;1159;-86
2022/06/07 02:25:57;28768.00;0.10;50.45;0.00;0.00;0.62;;;;;21.20;1.00;;;;;;2284350;61;1542;-86
2022/06/07 02:28:31;71037.00;0.24;123.55;0.00;0.00;0.62;;;;;21.20;1.00;;;;;;2284659;60;1108;-86
2022/06/07 02:31:00;50992.00;0.17;88.90;0.00;0.00;0.62;;;;;21.20;1.00;;;;;;2284540;60;1139;-86
2022/06/07 02:33:28;3686.00;0.01;7.01;0.00;0.00;0.62;;;;;21.10;1.00;;;;;;2284730;60;1176;-86
2022/06/07 02:35:56;0.00;0.00;0.62;0.00;0.00;0.62;;;;;20.90;1.00;;;;;;2284710;60;2119;-87
2022/06/07 02:38:24;37753.00;0.13;66.00;0.00;0.00;0.62;;;;;20.90;1.00;;;;;;2284661;60;1694;-87
2022/06/07 02:40:54;0.00;0.00;0.62;0.00;0.00;0.62;;;;;20.90;1.00;;;;;;2284754;60;1148;-86
2022/06/07 02:43:21;32735.00;0.11;57.32;0.00;0.00;0.62;;;;;20.80;1.00;;;;;;2284460;60;1641;-85
2022/06/07 02:45:50;0.00;0.00;0.62;0.00;0.00;0.62;;;;;20.80;1.00;;;;;;2284561;60;1391;-84
2022/06/07 02:48:17;0.00;0.00;0.62;0.00;0.00;0.62;;;;;20.60;1.00;;;;;;2284760;60;1118;-85
2022/06/07 02:50:43;0.00;0.00;0.62;0.00;0.00;0.62;;;;;20.70;1.00;;;;;;2284769;60;935;-85
2022/06/07 02:53:12;94303.00;0.31;163.74;0.00;0.00;0.62;;;;;20.70;1.00;;;;;;2284925;60;1143;-88
2022/06/07 02:55:39;31801.00;0.11;55.70;0.00;0.00;0.62;;;;;20.80;1.00;;;;;;2284673;60;1993;-85
2022/06/07 02:58:07;133345.00;0.44;231.10;0.00;0.00;0.62;;;;;20.80;1.00;;;;;;2284784;60;928;-86
2022/06/07 03:00:34;167712.00;0.56;290.33;0.00;0.00;0.62;;;;;20.50;1.00;;;;;;2284850;60;1179;-87
2022/06/07 03:03:02;129433.00;0.43;224.35;11706.00;0.04;20.90;;;;;20.60;1.00;;;;;;2284490;60;1187;-86
2022/06/07 03:05:29;147764.00;0.49;255.95;0.00;0.00;0.62;;;;;20.70;1.00;;;;;;2284596;60;1654;-85
2022/06/07 03:07:56;158626.00;0.53;274.67;0.00;0.00;0.62;;;;;20.60;1.00;;;;;;2284794;60;1127;-88
2022/06/07 03:10:23;86967.00;0.29;151.07;0.00;0.00;0.62;;;;;20.70;1.00;;;;;;2284674;60;1096;-85
2022/06/07 03:12:50;368837.00;1.23;636.24;0.00;0.00;0.62;;;;;20.60;1.00;;;;;;2284738;60;919;-86
2022/06/07 03:15:18;0.00;0.00;0.62;0.00;0.00;0.62;;;;;20.50;1.00;;;;;;2284705;60;1366;-86
2022/06/07 03:17:45;0.00;0.00;0.62;0.00;0.00;0.62;;;;;20.40;1.00;;;;;;2284710;61;1992;-86
2022/06/07 03:20:14;31198.00;0.10;54.66;0.00;0.00;0.62;;;;;20.30;1.00;;;;;;2284593;60;1117;-85
2022/06/07 03:22:42;71513.00;0.24;124.37;0.00;0.00;0.62;;;;;20.50;1.00;;;;;;2284487;60;1001;-86
2022/06/07 03:25:11;76718.00;0.26;133.37;0.00;0.00;0.62;;;;;20.40;1.00;;;;;;2284457;60;1377;-85
2022/06/07 03:27:39;0.00;0.00;0.62;0.00;0.00;0.62;;;;;20.40;1.00;;;;;;2284497;61;1132;-85
2022/06/07 03:30:10;36330.00;0.12;63.54;0.00;0.00;0.62;;;;;20.60;1.00;;;;;;2284683;60;1148;-86
2022/06/07 03:32:38;0.00;0.00;0.62;0.00;0.00;0.62;;;;;20.60;1.00;;;;;;2284217;61;1133;-86
2022/06/07 03:35:06;0.00;0.00;0.62;0.00;0.00;0.62;;;;;20.60;1.00;;;;;;2284606;60;1266;-85
2022/06/07 03:37:34;34120.00;0.11;59.71;0.00;0.00;0.62;;;;;20.50;1.00;;;;;;2284398;60;2012;-86
2022/06/07 03:40:01;81791.00;0.27;142.13;0.00;0.00;0.62;;;;;20.40;1.00;;;;;;2284519;60;1123;-86
2022/06/07 03:42:29;0.00;0.00;0.62;0.00;0.00;0.62;;;;;20.20;1.00;;;;;;2284510;61;1146;-85
2022/06/07 03:44:56;0.00;0.00;0.62;0.00;0.00;0.62;;;;;20.20;1.00;;;;;;2284383;60;1323;-86
2022/06/07 03:47:23;0.00;0.00;0.62;0.00;0.00;0.62;;;;;20.20;1.00;;;;;;2284393;60;1091;-85
2022/06/07 03:49:50;139541.00;0.47;241.78;0.00;0.00;0.62;;;;;20.10;1.00;;;;;;2284480;61;1201;-85
2022/06/07 03:52:17;0.00;0.00;0.62;0.00;0.00;0.62;;;;;20.10;1.00;;;;;;2284573;61;1088;-86
2022/06/07 03:54:48;0.00;0.00;0.62;0.00;0.00;0.62;;;;;20.00;1.00;;;;;;2284557;60;1362;-85
2022/06/07 03:57:15;0.00;0.00;0.62;0.00;0.00;0.62;;;;;20.00;1.00;;;;;;2284421;60;1927;-85
2022/06/07 03:59:43;306664.00;1.02;529.38;50391.00;0.17;87.86;;;;;20.10;1.00;;;;;;2284608;61;1477;-86
2022/06/07 04:02:11;0.00;0.00;0.62;0.00;0.00;0.62;;;;;20.50;1.00;;;;;;2284581;60;1128;-86
2022/06/07 04:04:38;87212.00;0.29;151.49;0.00;0.00;0.62;;;;;20.50;1.00;;;;;;2284758;60;981;-86
2022/06/07 04:09:51;42181.00;0.14;73.66;0.00;0.00;0.62;;;;;20.30;1.00;;;;;;2284613;60;662;-86
2022/06/07 04:12:19;189024.00;0.63;327.03;0.00;0.00;0.62;;;;;20.40;1.00;;;;;;2284407;61;1653;-87
2022/06/07 04:14:47;130745.00;0.44;226.61;0.00;0.00;0.62;;;;;20.30;1.00;;;;;;2284428;60;1394;-85
2022/06/07 04:17:14;152818.00;0.51;264.66;0.00;0.00;0.62;;;;;20.60;1.00;;;;;;2284561;60;1919;-86
2022/06/07 04:19:42;132689.00;0.44;229.97;0.00;0.00;0.62;;;;;20.60;1.00;;;;;;2284837;60;963;-88
2022/06/07 04:22:11;25759.00;0.09;45.24;0.00;0.00;0.62;;;;;20.60;1.00;;;;;;2284681;60;1040;-86
2022/06/07 04:24:38;174745.00;0.58;302.44;45664.00;0.15;79.69;;;;;20.50;1.00;;;;;;2284460;60;1156;-86
2022/06/07 04:27:07;256944.00;0.86;443.89;0.00;0.00;0.62;;;;;20.50;1.00;;;;;;2284594;60;1612;-86
2022/06/07 04:29:34;116854.00;0.39;202.66;0.00;0.00;0.62;;;;;20.50;1.00;;;;;;2284651;60;1050;-85
2022/06/07 04:32:01;23335.00;0.08;41.04;0.00;0.00;0.62;;;;;20.40;1.00;;;;;;2284572;60;1022;-86
2022/06/07 04:34:28;23439.00;0.08;41.22;0.00;0.00;0.62;;;;;20.40;1.00;;;;;;2284732;60;896;-87
2022/06/07 04:36:55;247680.00;0.83;427.96;0.00;0.00;0.62;;;;;20.30;1.00;;;;;;2284520;60;2004;-87
2022/06/07 04:39:22;284886.00;0.95;491.94;0.00;0.00;0.62;;;;;20.30;1.00;;;;;;2284340;60;1718;-86
2022/06/07 04:41:49;157140.00;0.52;272.11;0.00;0.00;0.62;;;;;20.40;1.00;;;;;;2284572;60;2052;-87
2022/06/07 04:44:18;205961.00;0.69;356.18;0.00;0.00;0.62;;;;;20.30;1.00;;;;;;2284460;60;1622;-86
2022/06/07 04:46:45;218432.00;0.73;377.65;0.00;0.00;0.62;;;;;20.40;1.00;;;;;;2284500;60;1394;-85
2022/06/07 04:49:11;334998.00;1.12;578.08;0.00;0.00;0.62;;;;;20.40;1.00;;;;;;2284506;60;1078;-85
2022/06/07 04:51:39;143082.00;0.48;247.88;0.00;0.00;0.62;;;;;20.40;1.00;;;;;;2284476;60;1637;-85
2022/06/07 04:54:06;202577.00;0.68;350.36;35258.00;0.12;61.68;;;;;20.60;1.00;;;;;;2284487;60;1164;-85
2022/06/07 04:56:36;190157.00;0.63;328.98;25045.00;0.08;44.01;;;;;20.60;1.00;;;;;;2284417;60;1911;-88
2022/06/07 04:59:05;44183.00;0.15;77.12;0.00;0.00;0.62;;;;;20.70;1.00;;;;;;2284541;60;1171;-87
2022/06/07 05:01:36;152854.00;0.51;264.73;0.00;0.00;0.62;;;;;20.50;1.00;;;;;;2284501;60;1765;-86
2022/06/07 05:04:05;0.00;0.00;0.62;0.00;0.00;0.62;;;;;20.20;1.00;;;;;;2284618;60;1115;-87
2022/06/07 05:06:35;0.00;0.00;0.62;0.00;0.00;0.62;;;;;20.20;1.00;;;;;;2284323;60;1359;-85
2022/06/07 05:09:06;319138.00;1.06;550.82;44580.00;0.15;77.81;;;;;19.90;1.00;;;;;;2284486;61;1183;-85
2022/06/07 05:11:33;22082.00;0.07;38.88;0.00;0.00;0.62;;;;;20.20;1.00;;;;;;2284564;60;1111;-86
2022/06/07 05:14:03;188947.00;0.63;326.90;0.00;0.00;0.62;;;;;20.10;1.00;;;;;;2284527;60;1036;-86
2022/06/07 05:16:31;178563.00;0.60;309.01;0.00;0.00;0.62;;;;;20.30;1.00;;;;;;2284334;60;1931;-86
2022/06/07 05:18:59;183326.00;0.61;317.22;0.00;0.00;0.62;;;;;20.20;1.00;;;;;;2284326;60;1116;-85
2022/06/07 05:21:27;161535.00;0.54;279.68;0.00;0.00;0.62;;;;;20.50;1.00;;;;;;2284488;60;1286;-87
2022/06/07 05:23:54;78571.00;0.26;136.57;0.00;0.00;0.62;;;;;20.50;1.00;;;;;;2284364;60;1255;-88
2022/06/07 05:26:29;132515.00;0.44;229.67;0.00;0.00;0.62;;;;;20.80;1.00;;;;;;2284123;60;1400;-86
2022/06/07 05:28:57;168922.00;0.56;292.41;75022.00;0.25;130.44;;;;;20.80;1.00;;;;;;2284411;60;1154;-86
2022/06/07 05:31:24;236052.00;0.79;407.96;71860.00;0.24;124.97;;;;;20.80;1.00;;;;;;2284356;60;1129;-86
2022/06/07 05:33:51;189537.00;0.63;327.91;70355.00;0.23;122.37;;;;;20.90;1.00;;;;;;2284269;60;1914;-87
2022/06/07 05:36:21;152500.00;0.51;264.12;60640.00;0.20;105.58;;;;;21.00;1.00;;;;;;2284316;60;1291;-88
2022/06/07 05:38:49;341412.00;1.14;589.10;75161.00;0.25;130.68;;;;;21.00;1.00;;;;;;2284306;60;1951;-86
2022/06/07 05:41:20;118175368.00;393.92;66852424.00;34763.00;0.12;60.83;;;;;21.10;1.00;;;;;;2284323;60;1536;-86
2022/06/07 05:43:47;335758.00;1.12;579.38;71648.00;0.24;124.61;;;;;21.00;1.00;;;;;;2284384;60;1123;-85
2022/06/07 05:46:15;338362.00;1.13;583.86;73104.00;0.24;127.12;;;;;21.20;1.00;;;;;;2284227;60;1372;-85
2022/06/07 05:48:42;252558.00;0.84;436.35;78710.00;0.26;136.81;;;;;21.00;1.00;;;;;;2284358;60;1006;-87
2022/06/07 05:51:09;167065.00;0.56;289.21;73332.00;0.24;127.52;;;;;21.10;1.00;;;;;;2284361;60;1301;-85
2022/06/07 05:53:38;203433.00;0.68;351.83;73551.00;0.25;127.90;;;;;20.80;1.00;;;;;;2284351;60;1111;-86
2022/06/07 05:56:07;273243.00;0.91;471.92;72464.00;0.24;126.02;;;;;21.00;1.00;;;;;;2284373;60;1560;-86
2022/06/07 05:58:34;300641.00;1.00;519.02;73528.00;0.25;127.86;;;;;21.40;1.00;;;;;;2284305;60;1931;-87
2022/06/07 06:01:06;303765.00;1.01;524.39;74878.00;0.25;130.19;;;;;21.90;1.00;;;;;;2284057;60;1523;-88
2022/06/07 06:03:36;741252.00;2.47;1278.85;69118.00;0.23;120.24;;;;;21.90;1.00;;;;;;2309092;56;3781;-88
2022/06/07 06:11:33;141470464.00;471.57;114752480.00;14939.00;0.05;26.50;;;;;22.00;1.00;;;;;;2322911;40;3759;-87
2022/06/07 06:14:04;1160088.00;3.87;2018.22;67459.00;0.22;117.37;;;;;21.90;1.00;;;;;;2295469;39;3740;-85
2022/06/07 06:16:32;1300938.00;4.34;2273.82;19582.00;0.07;34.55;;;;;21.70;1.00;;;;;;2363570;40;3768;-90
2022/06/07 06:24:05;2385352.00;7.95;4447.94;79132.00;0.26;137.54;;;;;21.90;1.00;;;;;;2277289;61;1372;-88
2022/06/07 06:42:49;959582.00;3.20;1661.02;27095.00;0.09;47.55;;;;;27.90;1.00;;;;;;2305882;40;3558;-88
2022/06/07 06:50:20;457021.00;1.52;787.86;0.00;0.00;0.62;;;;;27.20;1.00;;;;;;2286379;60;1398;-89
2022/06/07 06:55:17;344178.00;1.15;593.85;0.00;0.00;0.62;;;;;26.10;1.00;;;;;;2286821;60;1417;-89
2022/06/07 06:57:44;17387.00;0.06;30.74;0.00;0.00;0.62;;;;;25.50;1.00;;;;;;2284677;60;2004;-88
2022/06/07 07:00:12;4786.00;0.02;8.91;0.00;0.00;0.62;;;;;25.20;1.00;;;;;;2284799;60;1054;-89
2022/06/07 07:02:39;21856.00;0.07;38.48;0.00;0.00;0.62;;;;;24.90;1.00;;;;;;2284809;60;1600;-89
2022/06/07 07:05:07;0.00;0.00;0.62;0.00;0.00;0.62;;;;;25.20;1.00;;;;;;2284752;60;1375;-88
2022/06/07 07:07:36;49861.00;0.17;86.95;0.00;0.00;0.62;;;;;24.90;1.00;;;;;;2284677;60;1120;-87
2022/06/07 07:10:03;153980.00;0.51;266.67;35210.00;0.12;61.60;;;;;24.90;1.00;;;;;;2284640;60;2073;-89
2022/06/07 07:12:32;252299.00;0.84;435.90;13463.00;0.04;23.95;;;;;24.70;1.00;;;;;;2284673;60;1025;-86
2022/06/07 07:14:59;45836.00;0.15;79.98;0.00;0.00;0.62;;;;;24.90;1.00;;;;;;2284816;60;1307;-88
2022/06/07 07:17:26;0.00;0.00;0.62;0.00;0.00;0.62;;;;;24.80;1.00;;;;;;2284577;60;2000;-89
2022/06/07 07:19:54;0.00;0.00;0.62;0.00;0.00;0.62;;;;;24.60;1.00;;;;;;2284908;60;1082;-89
2022/06/07 07:27:20;227472.00;0.76;393.20;0.00;0.00;0.62;;;;;25.40;1.00;;;;;;2286885;60;1346;-89
2022/06/07 07:29:47;202595.00;0.68;350.39;90563.00;0.30;157.28;;;;;25.80;1.00;;;;;;2284872;60;1062;-86
2022/06/07 07:32:14;59250.00;0.20;103.18;0.00;0.00;0.62;;;;;25.70;1.00;;;;;;2284889;60;1183;-88
2022/06/07 07:34:41;521107.00;1.74;898.17;97067.00;0.32;168.51;;;;;25.70;1.00;;;;;;2284801;60;1689;-88
2022/06/07 07:37:10;412053.00;1.37;710.53;86721.00;0.29;150.65;;;;;25.80;1.00;;;;;;2280860;61;2413;-87
2022/06/07 07:44:40;511341.00;1.70;881.35;0.00;0.00;0.62;;;;;25.40;1.00;;;;;;2291657;55;3775;-88
2022/06/07 07:54:37;603600.00;2.01;1040.44;0.00;0.00;0.62;;;;;26.20;1.00;;;;;;2287557;61;1328;-91
2022/06/07 08:19:45;630807.00;2.10;1087.44;0.00;0.00;0.62;;;;;28.00;1.00;;;;;;2286957;61;1016;-89
2022/06/07 08:47:34;952341.00;3.17;1648.24;0.00;0.00;0.62;;;;;26.80;1.00;;;;;;2307442;40;3557;-90
2022/06/07 08:50:08;154367.00;0.51;267.33;0.00;0.00;0.62;;;;;26.80;1.00;;;;;;2288301;60;1555;-90
2022/06/07 08:52:37;235828.00;0.79;407.57;0.00;0.00;0.62;;;;;26.40;1.00;;;;;;2358093;55;3772;-88
2022/06/07 09:07:47;1324086.00;4.41;2316.25;0.00;0.00;0.62;;;;;28.10;1.00;;;;;;823732;40;3455;-90
2022/06/07 09:30:25;721029.00;2.40;1243.72;0.00;0.00;0.62;;;;;28.30;1.00;;;;;;2286630;61;1131;-89
2022/06/07 10:03:04;622813.00;2.08;1073.63;76792.00;0.26;133.50;;;;;27.50;1.00;;;;;;2286898;61;1305;-90
2022/06/07 11:20:53;741513.00;2.47;1279.30;0.00;0.00;0.62;;;;;28.40;1.00;;;;;;2287690;61;990;-89
2022/06/07 11:23:29;131699.00;0.44;228.26;0.00;0.00;0.62;;;;;28.60;1.00;;;;;;2285473;61;1763;-90
2022/06/07 11:58:54;470215.00;1.57;810.56;0.00;0.00;0.62;;;;;28.80;1.00;;;;;;2310877;40;3487;-88
2022/06/07 12:16:34;722197.00;2.41;1245.75;47328.00;0.16;82.56;;;;;29.30;1.00;;;;;;737478;59;1979;-89
2022/06/07 12:19:05;351498.00;1.17;606.44;67961.00;0.23;118.24;;;;;29.80;1.00;;;;;;2280618;61;2016;-87
2022/06/07 12:21:40;408411.00;1.36;704.27;99487.00;0.33;172.69;;;;;29.60;1.00;;;;;;2280675;61;1120;-88
2022/06/07 12:24:14;211640.00;0.71;365.96;0.00;0.00;0.62;;;;;29.30;1.00;;;;;;2280445;61;1494;-87
2022/06/07 12:26:41;16083.00;0.05;28.49;0.00;0.00;0.62;;;;;29.30;1.00;;;;;;2280607;61;1359;-86
2022/06/07 12:29:18;50496.00;0.17;88.04;0.00;0.00;0.62;;;;;29.50;1.00;;;;;;2280576;61;1692;-87
2022/06/07 12:31:50;33026.00;0.11;57.82;0.00;0.00;0.62;;;;;29.60;1.00;;;;;;2279965;61;1717;-88
2022/06/07 12:34:20;285082.00;0.95;492.27;0.00;0.00;0.62;;;;;29.20;1.00;;;;;;2276711;61;1055;-88
2022/06/07 12:36:54;218006.00;0.73;376.91;0.00;0.00;0.62;;;;;28.90;1.00;;;;;;2276744;61;1373;-88
2022/06/07 12:39:21;112047.00;0.37;194.36;0.00;0.00;0.62;;;;;29.00;1.00;;;;;;2276709;61;1915;-88
2022/06/07 12:41:53;226455.00;0.75;391.45;0.00;0.00;0.62;;;;;29.10;1.00;;;;;;2276760;61;1601;-88
2022/06/07 12:44:30;194868.00;0.65;337.09;11654.00;0.04;20.81;;;;;29.10;1.00;;;;;;2276731;61;1716;-88
2022/06/07 12:47:01;243281.00;0.81;420.39;0.00;0.00;0.62;;;;;29.40;1.00;;;;;;2276632;61;1483;-88
2022/06/07 12:49:30;290482.00;0.97;501.56;49284.00;0.16;85.95;;;;;28.90;1.00;;;;;;2276686;61;1727;-89
2022/06/07 12:52:00;695799.00;2.32;1199.95;48940.00;0.16;85.35;;;;;28.90;1.00;;;;;;2276726;61;1139;-88
2022/06/07 12:54:29;822724.00;2.74;1420.78;49870.00;0.17;86.96;;;;;28.80;1.00;;;;;;2276578;61;1114;-87
2022/06/07 12:56:59;910727.00;3.04;1574.97;26641.00;0.09;46.77;;;;;28.80;1.00;;;;;;2276686;61;1291;-89
2022/06/07 12:59:34;953309.00;3.18;1649.95;57479.00;0.19;100.12;;;;;29.00;1.00;;;;;;2276697;61;1990;-88
2022/06/07 13:02:12;857321.00;2.86;1481.28;45870.00;0.15;80.04;;;;;29.50;1.00;;;;;;2276712;61;1609;-88
2022/06/07 13:04:47;738829.00;2.46;1274.64;54309.00;0.18;94.64;;;;;29.50;1.00;;;;;;2276644;61;1609;-88
2022/06/07 13:07:23;1311905.00;4.37;2293.91;86683.00;0.29;150.58;;;;;29.20;1.00;;;;;;2276416;61;1216;-86
2022/06/07 13:22:42;981209.00;3.27;1699.22;0.00;0.00;0.62;;;;;28.60;1.00;;;;;;2282462;60;1173;-88
2022/06/07 13:25:18;165720.00;0.55;286.89;0.00;0.00;0.62;;;;;29.10;1.00;;;;;;2284616;60;1380;-89
2022/06/07 13:27:50;86378.00;0.29;150.05;0.00;0.00;0.62;;;;;29.40;1.00;;;;;;2284611;60;974;-88
2022/06/07 13:30:35;127138.00;0.42;220.39;6694.00;0.02;12.22;;;;;29.50;1.00;;;;;;2284639;60;2155;-88
2022/06/07 13:33:14;162654.00;0.54;281.61;0.00;0.00;0.62;;;;;29.50;1.00;;;;;;2284683;60;1058;-88
2022/06/07 13:35:45;108343.00;0.36;187.97;0.00;0.00;0.62;;;;;29.30;1.00;;;;;;2284603;60;1342;-88
2022/06/07 13:38:27;194992.00;0.65;337.30;0.00;0.00;0.62;;;;;29.10;1.00;;;;;;2284526;60;1915;-89
2022/06/07 13:41:10;1169864.00;3.90;2035.83;41600.00;0.14;72.66;;;;;29.10;1.00;;;;;;2284554;60;1042;-88
2022/06/07 13:43:49;858356.00;2.86;1483.09;84497.00;0.28;146.80;;;;;29.10;1.00;;;;;;2290103;55;3788;-88
2022/06/07 13:46:24;934062.00;3.11;1616.02;103575.00;0.35;179.74;;;;;28.80;1.00;;;;;;2284349;60;1469;-88
2022/06/07 13:54:28;633324.00;2.11;1091.80;21535.00;0.07;37.93;;;;;26.80;1.00;;;;;;2284517;60;670;-87
2022/06/07 13:56:55;232629.00;0.78;402.07;55917.00;0.19;97.42;;;;;27.10;1.00;;;;;;2284429;60;1306;-87
2022/06/07 13:59:23;87768.00;0.29;152.45;0.00;0.00;0.62;;;;;27.10;1.00;;;;;;2284242;60;1994;-88
2022/06/07 14:01:52;319995.00;1.07;552.29;0.00;0.00;0.62;;;;;27.10;1.00;;;;;;2304758;55;3758;-89
2022/06/07 14:04:24;67851.00;0.23;118.05;0.00;0.00;0.62;;;;;27.10;1.00;;;;;;2283870;60;1667;-89
2022/06/07 14:26:56;597969.00;1.99;1030.71;11455.00;0.04;20.47;;;;;27.00;1.00;;;;;;2278417;61;1431;-89
2022/06/07 14:29:23;196408.00;0.65;339.74;0.00;0.00;0.62;;;;;27.30;1.00;;;;;;2276030;61;1496;-90
2022/06/07 14:39:30;283994.00;0.95;490.40;0.00;0.00;0.62;;;;;26.80;1.00;;;;;;2281788;60;1895;-87
2022/06/07 14:44:28;378048.00;1.26;652.07;0.00;0.00;0.62;;;;;27.30;1.00;;;;;;2281631;60;1350;-88
2022/06/07 14:46:57;522783.00;1.74;901.06;53547.00;0.18;93.32;;;;;27.40;1.00;;;;;;2280155;60;1775;-88
2022/06/07 14:49:31;1019854.00;3.40;1767.67;138765.00;0.46;240.44;;;;;27.50;1.00;;;;;;2290659;55;3823;-90
2022/06/07 14:51:58;407847.00;1.36;703.30;28570.00;0.10;50.11;;;;;27.70;1.00;;;;;;2284181;60;2004;-87
2022/06/07 14:54:27;442106.00;1.47;762.20;6199.00;0.02;11.36;;;;;27.70;1.00;;;;;;2284314;60;1650;-85
2022/06/07 14:56:56;201680.00;0.67;348.82;4927.00;0.02;9.16;;;;;27.30;1.00;;;;;;2284284;60;1286;-87
2022/06/07 14:59:23;266006.00;0.89;459.48;17955.00;0.06;31.73;;;;;27.30;1.00;;;;;;2284946;60;1998;-87
2022/06/07 15:01:54;139345.00;0.46;241.44;0.00;0.00;0.62;;;;;27.60;1.00;;;;;;2284962;60;1101;-88
2022/06/07 15:04:29;122469.00;0.41;212.34;0.00;0.00;0.62;;;;;27.80;1.00;;;;;;2284959;60;1017;-87
2022/06/07 15:06:56;63573.00;0.21;110.65;0.00;0.00;0.62;;;;;27.70;1.00;;;;;;2285019;60;1411;-88
2022/06/07 15:09:25;0.00;0.00;0.62;0.00;0.00;0.62;;;;;27.80;1.00;;;;;;2285163;60;1127;-87
2022/06/07 15:11:53;75694.00;0.25;131.60;0.00;0.00;0.62;;;;;27.60;1.00;;;;;;2285102;60;1097;-87
2022/06/07 15:14:21;0.00;0.00;0.62;0.00;0.00;0.62;;;;;27.80;1.00;;;;;;2285125;60;983;-88
2022/06/07 15:16:51;146755.00;0.49;254.21;0.00;0.00;0.62;;;;;27.90;1.00;;;;;;2285145;60;1402;-87
2022/06/07 15:19:29;98802.00;0.33;171.50;0.00;0.00;0.62;;;;;27.70;1.00;;;;;;2285037;60;2071;-88
2022/06/07 15:21:57;58398.00;0.19;101.71;0.00;0.00;0.62;;;;;27.10;1.00;;;;;;2284964;60;1026;-88
2022/06/07 15:24:24;0.00;0.00;0.62;0.00;0.00;0.62;;;;;27.30;1.00;;;;;;2284879;60;1744;-87
2022/06/07 15:26:52;44155.00;0.15;77.08;0.00;0.00;0.62;;;;;27.70;1.00;;;;;;2284917;60;1304;-86
2022/06/07 15:29:49;0.00;0.00;0.62;0.00;0.00;0.62;;;;;27.70;1.00;;;;;;2284828;60;1054;-88
2022/06/07 15:32:13;151503.00;0.51;262.40;0.00;0.00;0.62;;;;;28.10;1.00;;;;;;2284967;60;1252;-87
2022/06/07 15:34:43;103524.00;0.35;179.65;0.00;0.00;0.62;;;;;28.30;1.00;;;;;;2284939;60;1102;-87
2022/06/07 15:37:10;6600.00;0.02;12.06;0.00;0.00;0.62;;;;;28.20;1.00;;;;;;2284968;60;1129;-88
2022/06/07 15:39:37;62537.00;0.21;108.86;0.00;0.00;0.62;;;;;28.40;1.00;;;;;;2284995;60;1919;-89
2022/06/07 15:44:50;8386.00;0.03;15.15;0.00;0.00;0.62;;;;;27.60;1.00;;;;;;2284979;60;1335;-86
2022/06/07 15:47:17;144743.00;0.48;250.75;0.00;0.00;0.62;;;;;27.70;1.00;;;;;;2284956;60;1114;-86
2022/06/07 15:49:46;13911.00;0.05;24.72;0.00;0.00;0.62;;;;;27.30;1.00;;;;;;2284778;60;1118;-87
2022/06/07 15:52:14;40343.00;0.13;70.48;0.00;0.00;0.62;;;;;27.20;1.00;;;;;;2284934;60;1126;-88
2022/06/07 15:54:41;0.00;0.00;0.62;0.00;0.00;0.62;;;;;27.30;1.00;;;;;;2284885;60;1738;-87